createdAt,value
2022-10-01T00:02:14.578Z,11.53
2022-10-01T00:04:40.881Z,11.61
2022-10-01T00:07:08.555Z,11.57
2022-10-01T00:09:34.843Z,11.55
2022-10-01T00:12:01.197Z,11.51
2022-10-01T00:14:27.572Z,11.52
2022-10-01T00:16:54.056Z,11.59
2022-10-01T00:19:20.417Z,11.51
2022-10-01T00:21:46.725Z,11.46
2022-10-01T00:24:14.376Z,11.49
2022-10-01T00:26:41.894Z,11.49
2022-10-01T00:29:11.267Z,11.46
2022-10-01T00:31:38.159Z,11.45
2022-10-01T00:34:04.824Z,11.46
2022-10-01T00:36:31.457Z,11.40
2022-10-01T00:38:58.095Z,11.32
2022-10-01T00:41:25.831Z,11.46
2022-10-01T00:43:55.377Z,11.40
2022-10-01T00:46:24.564Z,11.33
2022-10-01T00:48:55.408Z,11.33
2022-10-01T00:51:21.711Z,11.34
2022-10-01T00:53:48.039Z,11.29
2022-10-01T00:56:14.350Z,11.39
2022-10-01T00:58:42.179Z,11.37
2022-10-01T01:01:08.547Z,11.43
2022-10-01T01:03:34.905Z,11.45
2022-10-01T01:06:01.210Z,11.50
2022-10-01T01:08:27.506Z,11.49
2022-10-01T01:11:00.263Z,11.52
2022-10-01T01:13:32.369Z,11.53
2022-10-01T01:16:03.342Z,11.49
2022-10-01T01:18:33.910Z,11.49
2022-10-01T01:21:06.524Z,11.47
2022-10-01T01:23:54.441Z,11.44
2022-10-01T01:26:27.519Z,11.34
2022-10-01T01:28:57.700Z,11.30
2022-10-01T01:31:27.973Z,11.39
2022-10-01T01:33:55.832Z,11.38
2022-10-01T01:36:24.854Z,11.45
2022-10-01T01:38:52.030Z,11.30
2022-10-01T01:41:19.316Z,11.34
2022-10-01T01:43:47.868Z,11.46
2022-10-01T01:46:15.566Z,11.38
2022-10-01T01:48:42.540Z,11.33
2022-10-01T01:51:11.977Z,11.28
2022-10-01T01:53:38.855Z,11.20
2022-10-01T01:56:05.693Z,11.19
2022-10-01T01:58:32.510Z,11.19
2022-10-01T02:00:58.805Z,11.22
2022-10-01T02:03:27.554Z,11.18
2022-10-01T02:05:58.396Z,11.19
2022-10-01T02:08:31.168Z,11.21
2022-10-01T02:11:07.860Z,11.21
2022-10-01T02:13:38.309Z,11.27
2022-10-01T02:16:11.235Z,11.29
2022-10-01T02:18:41.011Z,11.34
2022-10-01T02:21:10.502Z,11.24
2022-10-01T02:23:40.439Z,11.22
2022-10-01T02:26:08.854Z,11.18
2022-10-01T02:28:37.141Z,11.22
2022-10-01T02:31:04.145Z,11.21
2022-10-01T02:33:32.771Z,11.21
2022-10-01T02:36:02.253Z,11.23
2022-10-01T02:38:29.208Z,11.24
2022-10-01T02:41:00.549Z,11.32
2022-10-01T02:43:28.604Z,11.18
2022-10-01T02:45:56.341Z,11.25
2022-10-01T02:48:22.663Z,11.35
2022-10-01T02:50:51.005Z,11.25
2022-10-01T02:53:21.131Z,11.27
2022-10-01T02:55:48.571Z,11.35
2022-10-01T02:58:14.856Z,11.27
2022-10-01T03:00:41.141Z,11.23
2022-10-01T03:03:07.447Z,11.22
2022-10-01T03:05:33.738Z,11.25
2022-10-01T03:08:00.204Z,11.21
2022-10-01T03:10:27.938Z,11.25
2022-10-01T03:12:54.228Z,11.28
2022-10-01T03:15:20.533Z,11.37
2022-10-01T03:17:50.291Z,11.34
2022-10-01T03:20:16.741Z,11.41
2022-10-01T03:22:44.263Z,11.38
2022-10-01T03:25:10.558Z,11.35
2022-10-01T03:27:38.191Z,11.39
2022-10-01T03:30:04.829Z,11.40
2022-10-01T03:32:31.175Z,11.44
2022-10-01T03:34:57.455Z,11.46
2022-10-01T03:37:23.778Z,11.47
2022-10-01T03:39:50.135Z,11.53
2022-10-01T03:42:16.502Z,11.45
2022-10-01T03:44:44.194Z,11.50
2022-10-01T03:47:10.773Z,11.51
2022-10-01T03:49:37.060Z,11.45
2022-10-01T03:52:04.040Z,11.44
2022-10-01T03:54:30.348Z,11.45
2022-10-01T03:56:56.766Z,11.55
2022-10-01T03:59:23.352Z,11.60
2022-10-01T04:01:51.069Z,11.59
2022-10-01T04:04:17.441Z,11.58
2022-10-01T04:06:43.769Z,11.59
2022-10-01T04:09:10.061Z,11.56
2022-10-01T04:11:36.903Z,11.65
2022-10-01T04:14:03.351Z,11.60
2022-10-01T04:16:29.694Z,11.60
2022-10-01T04:18:57.317Z,11.61
2022-10-01T04:21:23.610Z,11.62
2022-10-01T04:23:49.900Z,11.63
2022-10-01T04:26:16.199Z,11.67
2022-10-01T04:28:42.488Z,11.69
2022-10-01T04:31:08.861Z,11.67
2022-10-01T04:33:35.190Z,11.72
2022-10-01T04:36:03.013Z,11.79
2022-10-01T04:38:29.325Z,11.78
2022-10-01T04:40:55.616Z,11.75
2022-10-01T04:43:21.937Z,11.78
2022-10-01T04:45:48.214Z,11.84
2022-10-01T04:48:14.491Z,11.82
2022-10-01T04:50:40.807Z,11.81
2022-10-01T04:53:08.421Z,11.80
2022-10-01T04:55:34.794Z,11.86
2022-10-01T04:58:01.073Z,11.82
2022-10-01T05:00:27.337Z,11.80
2022-10-01T05:02:53.861Z,11.80
2022-10-01T05:05:21.334Z,11.83
2022-10-01T05:07:48.023Z,11.88
2022-10-01T05:10:17.396Z,11.87
2022-10-01T05:12:43.791Z,11.87
2022-10-01T05:15:10.592Z,11.85
2022-10-01T05:17:36.860Z,11.83
2022-10-01T05:20:03.718Z,11.83
2022-10-01T05:22:30.061Z,11.87
2022-10-01T05:24:56.372Z,11.87
2022-10-01T05:27:23.996Z,11.88
2022-10-01T05:29:50.252Z,11.86
2022-10-01T05:32:16.548Z,11.85
2022-10-01T05:34:42.837Z,11.87
2022-10-01T05:37:09.083Z,11.92
2022-10-01T05:39:35.361Z,11.94
2022-10-01T05:42:06.190Z,11.92
2022-10-01T05:44:34.276Z,11.94
2022-10-01T05:47:00.557Z,12.00
2022-10-01T05:49:26.816Z,12.02
2022-10-01T05:51:53.111Z,12.04
2022-10-01T05:54:19.378Z,12.03
2022-10-01T05:56:45.802Z,12.04
2022-10-01T05:59:12.077Z,12.04
2022-10-01T06:01:39.793Z,12.08
2022-10-01T06:04:06.147Z,12.08
2022-10-01T06:06:32.436Z,12.17
2022-10-01T06:08:59.191Z,12.17
2022-10-01T06:11:25.443Z,12.16
2022-10-01T06:13:51.735Z,12.20
2022-10-01T06:16:18.367Z,12.19
2022-10-01T06:18:46.710Z,12.23
2022-10-01T06:21:13.002Z,12.24
2022-10-01T06:23:39.289Z,12.27
2022-10-01T06:26:05.905Z,12.27
2022-10-01T06:28:32.406Z,12.27
2022-10-01T06:31:01.029Z,12.28
2022-10-01T06:33:27.310Z,12.30
2022-10-01T06:35:54.949Z,12.32
2022-10-01T06:38:22.215Z,12.32
2022-10-01T06:40:51.408Z,12.33
2022-10-01T06:43:17.775Z,12.37
2022-10-01T06:45:44.157Z,12.36
2022-10-01T06:48:13.196Z,12.40
2022-10-01T06:50:39.826Z,12.45
2022-10-01T06:53:07.488Z,12.52
2022-10-01T06:55:34.981Z,12.59
2022-10-01T06:58:01.971Z,12.67
2022-10-01T07:00:29.250Z,12.70
2022-10-01T07:02:55.895Z,12.72
2022-10-01T07:05:22.410Z,12.77
2022-10-01T07:07:48.714Z,12.78
2022-10-01T07:10:17.186Z,12.83
2022-10-01T07:12:43.494Z,12.89
2022-10-01T07:15:09.836Z,12.95
2022-10-01T07:17:42.682Z,13.05
2022-10-01T07:20:09.259Z,13.17
2022-10-01T07:22:35.532Z,13.23
2022-10-01T07:25:01.847Z,13.27
2022-10-01T07:27:29.472Z,13.32
2022-10-01T07:29:55.751Z,13.35
2022-10-01T07:32:22.017Z,13.44
2022-10-01T07:34:48.315Z,13.56
2022-10-01T07:37:14.585Z,13.63
2022-10-01T07:39:40.860Z,13.66
2022-10-01T07:42:07.146Z,13.67
2022-10-01T07:44:34.766Z,13.69
2022-10-01T07:47:01.074Z,13.68
2022-10-01T07:49:27.386Z,13.66
2022-10-01T07:51:54.216Z,13.63
2022-10-01T07:54:20.577Z,13.60
2022-10-01T07:56:46.952Z,13.57
2022-10-01T07:59:13.260Z,13.57
2022-10-01T08:01:40.903Z,13.56
2022-10-01T08:04:07.256Z,13.57
2022-10-01T08:06:33.557Z,13.60
2022-10-01T08:08:59.853Z,13.60
2022-10-01T08:11:26.139Z,13.62
2022-10-01T08:13:52.402Z,13.65
2022-10-01T08:16:18.751Z,13.67
2022-10-01T08:18:46.410Z,13.70
2022-10-01T08:21:12.688Z,13.69
2022-10-01T08:23:38.971Z,13.70
2022-10-01T08:26:06.349Z,13.70
2022-10-01T08:28:32.732Z,13.70
2022-10-01T08:30:59.058Z,13.72
2022-10-01T08:33:25.340Z,13.71
2022-10-01T08:35:52.960Z,13.76
2022-10-01T08:38:19.228Z,13.74
2022-10-01T08:40:46.547Z,13.75
2022-10-01T08:43:18.031Z,13.75
2022-10-01T08:45:45.692Z,13.80
2022-10-01T08:48:16.476Z,13.87
2022-10-01T08:50:46.709Z,13.91
2022-10-01T08:53:16.407Z,13.95
2022-10-01T08:55:43.673Z,13.97
2022-10-01T08:58:11.733Z,14.01
2022-10-01T09:00:39.775Z,14.01
2022-10-01T09:03:07.059Z,14.06
2022-10-01T09:05:38.290Z,14.08
2022-10-01T09:08:09.368Z,14.11
2022-10-01T09:10:43.215Z,14.10
2022-10-01T09:13:22.509Z,14.05
2022-10-01T09:15:50.929Z,14.05
2022-10-01T09:18:25.317Z,14.16
2022-10-01T09:20:53.638Z,14.29
2022-10-01T09:23:24.554Z,14.37
2022-10-01T09:25:52.143Z,14.45
2022-10-01T09:28:20.059Z,14.61
2022-10-01T09:30:50.360Z,14.73
2022-10-01T09:33:17.989Z,14.81
2022-10-01T09:35:46.473Z,14.97
2022-10-01T09:38:15.638Z,15.12
2022-10-01T09:40:46.259Z,15.26
2022-10-01T09:43:13.904Z,15.42
2022-10-01T09:45:40.409Z,15.55
2022-10-01T09:48:14.463Z,15.72
2022-10-01T09:50:42.845Z,15.78
2022-10-01T09:53:13.349Z,15.80
2022-10-01T09:55:41.669Z,15.84
2022-10-01T09:58:09.347Z,15.94
2022-10-01T10:00:38.426Z,16.02
2022-10-01T10:03:04.990Z,16.06
2022-10-01T10:05:40.266Z,16.11
2022-10-01T10:08:11.609Z,16.08
2022-10-01T10:10:39.154Z,16.05
2022-10-01T10:13:17.793Z,15.96
2022-10-01T10:15:50.799Z,15.79
2022-10-01T10:18:24.074Z,15.75
2022-10-01T10:20:52.314Z,15.74
2022-10-01T10:23:19.923Z,15.87
2022-10-01T10:25:54.195Z,16.01
2022-10-01T10:28:21.922Z,16.18
2022-10-01T10:30:49.931Z,16.35
2022-10-01T10:33:17.095Z,16.46
2022-10-01T10:35:43.371Z,16.59
2022-10-01T10:38:17.737Z,16.67
2022-10-01T10:40:45.413Z,16.81
2022-10-01T10:43:18.249Z,16.94
2022-10-01T10:45:44.580Z,17.07
2022-10-01T10:48:16.657Z,17.17
2022-10-01T10:50:44.188Z,17.32
2022-10-01T10:53:18.227Z,17.40
2022-10-01T10:55:52.792Z,17.38
2022-10-01T10:58:19.090Z,17.32
2022-10-01T11:00:47.112Z,17.39
2022-10-01T11:03:16.904Z,17.51
2022-10-01T11:05:43.480Z,17.62
2022-10-01T11:08:16.878Z,17.65
2022-10-01T11:10:48.173Z,17.70
2022-10-01T11:13:26.987Z,17.61
2022-10-01T11:16:17.522Z,17.47
2022-10-01T11:18:54.050Z,17.25
2022-10-01T11:21:32.633Z,17.06
2022-10-01T11:24:12.161Z,16.87
2022-10-01T11:26:43.176Z,16.59
2022-10-01T11:29:17.125Z,16.45
2022-10-01T11:31:47.087Z,16.42
2022-10-01T11:34:28.681Z,16.51
2022-10-01T11:36:59.184Z,16.81
2022-10-01T11:39:26.866Z,16.87
2022-10-01T11:41:56.214Z,17.06
2022-10-01T11:44:26.143Z,17.12
2022-10-01T11:46:55.209Z,17.17
2022-10-01T11:49:37.099Z,16.98
2022-10-01T11:52:07.305Z,16.80
2022-10-01T11:54:34.948Z,16.59
2022-10-01T11:57:03.778Z,16.85
2022-10-01T11:59:33.785Z,17.00
2022-10-01T12:02:04.916Z,16.95
2022-10-01T12:04:34.587Z,17.14
2022-10-01T12:07:04.416Z,17.12
2022-10-01T12:09:36.229Z,17.20
2022-10-01T12:12:04.396Z,17.30
2022-10-01T12:14:35.262Z,17.39
2022-10-01T12:17:09.494Z,17.52
2022-10-01T12:19:39.249Z,17.56
2022-10-01T12:22:10.389Z,17.65
2022-10-01T12:24:40.217Z,17.72
2022-10-01T12:27:26.651Z,17.89
2022-10-01T12:29:56.789Z,18.01
2022-10-01T12:32:28.943Z,18.06
2022-10-01T12:35:02.975Z,17.98
2022-10-01T12:37:35.554Z,17.93
2022-10-01T12:40:09.821Z,17.98
2022-10-01T12:42:42.397Z,18.03
2022-10-01T12:45:13.282Z,17.87
2022-10-01T12:47:43.951Z,17.69
2022-10-01T12:50:17.091Z,17.65
2022-10-01T12:52:49.999Z,17.59
2022-10-01T12:55:39.616Z,17.36
2022-10-01T12:58:11.278Z,17.18
2022-10-01T13:00:41.380Z,17.23
2022-10-01T13:03:28.884Z,16.98
2022-10-01T13:06:10.455Z,17.07
2022-10-01T13:08:44.773Z,16.99
2022-10-01T13:11:16.369Z,16.95
2022-10-01T13:13:42.679Z,17.12
2022-10-01T13:16:10.832Z,17.09
2022-10-01T13:18:45.723Z,17.13
2022-10-01T13:21:18.326Z,17.08
2022-10-01T13:23:47.831Z,17.09
2022-10-01T13:26:16.797Z,16.88
2022-10-01T13:28:51.826Z,16.90
2022-10-01T13:31:18.259Z,16.88
2022-10-01T13:33:53.552Z,16.79
2022-10-01T13:36:28.067Z,16.84
2022-10-01T13:38:54.350Z,16.81
2022-10-01T13:41:21.872Z,16.80
2022-10-01T13:43:49.787Z,16.69
2022-10-01T13:46:16.127Z,16.70
2022-10-01T13:48:46.274Z,16.65
2022-10-01T13:51:13.744Z,16.76
2022-10-01T13:53:47.500Z,16.70
2022-10-01T13:56:25.424Z,16.73
2022-10-01T13:58:51.717Z,17.23
2022-10-01T14:01:28.476Z,17.12
2022-10-01T14:03:58.425Z,16.90
2022-10-01T14:06:27.740Z,16.97
2022-10-01T14:08:59.898Z,17.02
2022-10-01T14:11:27.459Z,16.95
2022-10-01T14:13:54.149Z,16.85
2022-10-01T14:16:20.749Z,16.71
2022-10-01T14:18:48.600Z,16.78
2022-10-01T14:21:28.761Z,16.64
2022-10-01T14:24:01.115Z,16.55
2022-10-01T14:26:31.162Z,16.36
2022-10-01T14:29:03.262Z,16.37
2022-10-01T14:31:37.142Z,16.58
2022-10-01T14:34:14.889Z,16.85
2022-10-01T14:36:42.047Z,16.98
2022-10-01T14:39:14.033Z,17.00
2022-10-01T14:41:40.360Z,16.85
2022-10-01T14:44:17.664Z,16.86
2022-10-01T14:46:44.001Z,16.87
2022-10-01T14:49:18.340Z,17.09
2022-10-01T14:51:49.757Z,17.27
2022-10-01T14:54:17.498Z,17.12
2022-10-01T14:56:43.840Z,17.15
2022-10-01T14:59:17.193Z,17.30
2022-10-01T15:01:53.447Z,17.35
2022-10-01T15:04:21.245Z,17.19
2022-10-01T15:06:47.631Z,17.22
2022-10-01T15:09:14.677Z,17.45
2022-10-01T15:11:44.587Z,17.41
2022-10-01T15:14:14.481Z,17.38
2022-10-01T15:16:40.842Z,17.42
2022-10-01T15:19:08.689Z,17.39
2022-10-01T15:21:37.065Z,17.46
2022-10-01T15:24:04.652Z,17.31
2022-10-01T15:26:31.681Z,17.35
2022-10-01T15:29:03.499Z,17.41
2022-10-01T15:31:30.192Z,17.40
2022-10-01T15:33:56.865Z,17.43
2022-10-01T15:36:25.137Z,17.43
2022-10-01T15:38:51.536Z,17.45
2022-10-01T15:41:31.654Z,17.54
2022-10-01T15:43:59.399Z,17.33
2022-10-01T15:46:30.173Z,17.29
2022-10-01T15:49:11.011Z,17.28
2022-10-01T15:51:43.231Z,17.25
2022-10-01T15:54:12.989Z,17.10
2022-10-01T15:56:39.456Z,17.08
2022-10-01T15:59:11.184Z,16.98
2022-10-01T16:01:40.150Z,17.01
2022-10-01T16:04:07.794Z,16.96
2022-10-01T16:06:36.322Z,16.99
2022-10-01T16:09:05.132Z,17.21
2022-10-01T16:11:33.185Z,17.31
2022-10-01T16:14:20.742Z,17.06
2022-10-01T16:16:48.539Z,16.87
2022-10-01T16:19:22.745Z,17.00
2022-10-01T16:22:03.915Z,16.78
2022-10-01T16:24:40.823Z,16.64
2022-10-01T16:27:12.244Z,16.54
2022-10-01T16:29:39.463Z,16.37
2022-10-01T16:32:08.715Z,16.32
2022-10-01T16:34:35.055Z,16.15
2022-10-01T16:37:02.144Z,16.11
2022-10-01T16:39:28.401Z,16.03
2022-10-01T16:42:18.973Z,15.95
2022-10-01T16:44:40.989Z,16.17
2022-10-01T16:47:10.836Z,15.97
2022-10-01T16:49:37.446Z,15.94
2022-10-01T16:52:04.170Z,16.13
2022-10-01T16:54:30.468Z,15.79
2022-10-01T16:56:56.754Z,15.83
2022-10-01T16:59:23.356Z,15.71
2022-10-01T17:01:49.843Z,15.57
2022-10-01T17:04:17.486Z,15.49
2022-10-01T17:06:43.806Z,15.31
2022-10-01T17:09:10.105Z,15.35
2022-10-01T17:11:36.444Z,15.30
2022-10-01T17:14:02.713Z,15.22
2022-10-01T17:16:29.176Z,15.03
2022-10-01T17:18:55.500Z,15.00
2022-10-01T17:21:23.250Z,14.90
2022-10-01T17:23:53.391Z,14.79
2022-10-01T17:26:19.959Z,14.70
2022-10-01T17:28:49.193Z,14.64
2022-10-01T17:31:17.852Z,14.59
2022-10-01T17:33:44.558Z,14.60
2022-10-01T17:36:11.052Z,14.50
2022-10-01T17:38:38.692Z,14.44
2022-10-01T17:41:05.047Z,14.38
2022-10-01T17:43:31.394Z,14.28
2022-10-01T17:45:58.487Z,14.18
2022-10-01T17:48:25.162Z,14.07
2022-10-01T17:50:57.824Z,13.97
2022-10-01T17:53:24.122Z,13.88
2022-10-01T17:55:51.757Z,13.81
2022-10-01T17:58:18.060Z,13.79
2022-10-01T18:00:44.506Z,13.83
2022-10-01T18:03:10.934Z,13.88
2022-10-01T18:05:37.250Z,13.88
2022-10-01T18:08:03.559Z,13.87
2022-10-01T18:10:29.838Z,13.83
2022-10-01T18:12:57.459Z,13.82
2022-10-01T18:15:23.756Z,13.77
2022-10-01T18:17:51.609Z,13.71
2022-10-01T18:20:18.919Z,13.62
2022-10-01T18:22:45.209Z,13.56
2022-10-01T18:25:11.505Z,13.51
2022-10-01T18:27:37.806Z,13.42
2022-10-01T18:30:06.049Z,13.34
2022-10-01T18:32:37.355Z,13.26
2022-10-01T18:35:05.801Z,13.18
2022-10-01T18:37:37.624Z,13.15
2022-10-01T18:40:07.794Z,13.10
2022-10-01T18:42:40.851Z,13.03
2022-10-01T18:45:13.328Z,12.98
2022-10-01T18:47:43.530Z,12.90
2022-10-01T18:50:20.086Z,12.85
2022-10-01T18:52:54.703Z,12.79
2022-10-01T18:55:32.112Z,12.78
2022-10-01T18:58:07.273Z,12.79
2022-10-01T19:00:40.014Z,12.79
2022-10-01T19:03:21.685Z,12.79
2022-10-01T19:06:08.360Z,12.80
2022-10-01T19:08:45.561Z,12.80
2022-10-01T19:11:18.132Z,12.78
2022-10-01T19:13:48.349Z,12.75
2022-10-01T19:16:22.656Z,12.72
2022-10-01T19:18:59.596Z,12.69
2022-10-01T19:21:29.419Z,12.66
2022-10-01T19:24:06.225Z,12.63
2022-10-01T19:26:36.092Z,12.58
2022-10-01T19:29:08.398Z,12.54
2022-10-01T19:31:41.564Z,12.50
2022-10-01T19:34:09.768Z,12.45
2022-10-01T19:36:38.350Z,12.42
2022-10-01T19:39:10.474Z,12.38
2022-10-01T19:41:38.910Z,12.36
2022-10-01T19:44:09.595Z,12.33
2022-10-01T19:46:38.658Z,12.31
2022-10-01T19:49:14.671Z,12.31
2022-10-01T19:51:51.445Z,12.29
2022-10-01T19:54:18.500Z,12.30
2022-10-01T19:56:46.898Z,12.30
2022-10-01T19:59:14.333Z,12.28
2022-10-01T20:01:46.915Z,12.30
2022-10-01T20:04:16.986Z,12.30
2022-10-01T20:06:46.020Z,12.28
2022-10-01T20:09:17.341Z,12.25
2022-10-01T20:11:47.528Z,12.22
2022-10-01T20:14:21.496Z,12.17
2022-10-01T20:16:51.644Z,12.14
2022-10-01T20:19:24.247Z,12.09
2022-10-01T20:21:57.737Z,12.02
2022-10-01T20:24:34.803Z,12.01
2022-10-01T20:27:05.445Z,11.99
2022-10-01T20:29:35.458Z,11.95
2022-10-01T20:32:06.319Z,11.91
2022-10-01T20:34:36.980Z,11.86
2022-10-01T20:37:09.955Z,11.84
2022-10-01T20:39:40.281Z,11.78
2022-10-01T20:42:10.934Z,11.73
2022-10-01T20:44:37.856Z,11.73
2022-10-01T20:47:11.039Z,11.72
2022-10-01T20:49:39.962Z,11.72
2022-10-01T20:52:10.188Z,11.69
2022-10-01T20:54:39.423Z,11.71
2022-10-01T20:57:09.762Z,11.78
2022-10-01T20:59:39.218Z,11.82
2022-10-01T21:02:17.582Z,11.88
2022-10-01T21:04:48.435Z,11.91
2022-10-01T21:07:25.313Z,11.96
2022-10-01T21:09:54.611Z,11.96
2022-10-01T21:12:22.565Z,12.02
2022-10-01T21:14:52.123Z,12.03
2022-10-01T21:17:26.657Z,12.06
2022-10-01T21:20:01.020Z,12.03
2022-10-01T21:22:34.052Z,12.01
2022-10-01T21:25:03.129Z,12.06
2022-10-01T21:27:35.858Z,12.11
2022-10-01T21:30:04.630Z,12.16
2022-10-01T21:32:39.462Z,12.21
2022-10-01T21:35:14.442Z,12.27
2022-10-01T21:37:41.533Z,12.28
2022-10-01T21:40:12.446Z,12.27
2022-10-01T21:42:43.644Z,12.27
2022-10-01T21:45:16.018Z,12.30
2022-10-01T21:47:51.111Z,12.31
2022-10-01T21:50:21.592Z,12.36
2022-10-01T21:52:54.269Z,12.35
2022-10-01T21:55:38.570Z,12.35
2022-10-01T21:58:12.286Z,12.35
2022-10-01T22:00:38.645Z,12.34
2022-10-01T22:03:15.646Z,12.32
2022-10-01T22:05:45.950Z,12.36
2022-10-01T22:08:18.038Z,12.35
2022-10-01T22:10:46.261Z,12.35
2022-10-01T22:13:15.962Z,12.35
2022-10-01T22:15:44.042Z,12.36
2022-10-01T22:18:11.934Z,12.38
2022-10-01T22:20:42.054Z,12.39
2022-10-01T22:23:09.540Z,12.42
2022-10-01T22:25:40.298Z,12.43
2022-10-01T22:28:09.389Z,12.43
2022-10-01T22:30:38.515Z,12.38
2022-10-01T22:33:08.154Z,12.35
2022-10-01T22:35:39.512Z,12.28
2022-10-01T22:38:11.032Z,12.19
2022-10-01T22:40:39.531Z,12.16
2022-10-01T22:43:08.128Z,12.11
2022-10-01T22:45:43.244Z,12.08
2022-10-01T22:48:17.899Z,12.02
2022-10-01T22:50:52.684Z,11.98
2022-10-01T22:53:27.978Z,12.00
2022-10-01T22:55:54.757Z,12.07
2022-10-01T22:58:33.044Z,12.07
2022-10-01T23:01:02.657Z,12.11
2022-10-01T23:03:36.471Z,12.14
2022-10-01T23:06:06.226Z,12.19
2022-10-01T23:08:38.712Z,12.22
2022-10-01T23:11:11.163Z,12.31
2022-10-01T23:13:42.054Z,12.36
2022-10-01T23:16:12.769Z,12.36
2022-10-01T23:18:41.050Z,12.33
2022-10-01T23:21:13.496Z,12.35
2022-10-01T23:23:42.478Z,12.33
2022-10-01T23:26:21.669Z,12.33
2022-10-01T23:28:53.933Z,12.32
2022-10-01T23:31:25.839Z,12.31
2022-10-01T23:33:59.792Z,12.32
2022-10-01T23:36:30.955Z,12.34
2022-10-01T23:39:08.346Z,12.37
2022-10-01T23:41:38.805Z,12.40
2022-10-01T23:44:08.605Z,12.43
2022-10-01T23:46:36.015Z,12.44
2022-10-01T23:49:05.876Z,12.45
2022-10-01T23:51:34.411Z,12.49
2022-10-01T23:54:04.775Z,12.50
2022-10-01T23:56:36.354Z,12.52
2022-10-01T23:59:05.305Z,12.55
